Time;durP1;ratioP1;P1;durP2;ratioP2;P2;SDS_P1;SDS_P2;PMS_P1;PMS_P2;Temp;Humidity;BMP_temperature;BMP_pressure;BME280_temperature;BME280_humidity;BME280_pressure;Samples;Min_cycle;Max_cycle;Signal;HPM_P1;HPM_P2
2022/06/01 00:00:48;;;;;;;50.72;28.48;;;;;;;11.83;88.32;92546.56;5071281;28;20040;-74
2022/06/01 00:03:15;;;;;;;51.75;27.92;;;;;;;11.82;88.48;92549.47;5058657;28;20449;-75
2022/06/01 00:05:41;;;;;;;49.88;29.45;;;;;;;11.80;89.06;92539.28;5049874;28;20032;-74
2022/06/01 00:08:07;;;;;;;51.42;27.17;;;;;;;11.79;89.36;92542.19;5050125;28;20143;-74
2022/06/01 00:10:32;;;;;;;52.30;28.65;;;;;;;11.76;89.73;92527.81;5047009;28;20128;-74
2022/06/01 00:12:58;;;;;;;55.78;29.38;;;;;;;11.71;89.86;92535.00;5049642;28;20498;-74
2022/06/01 00:15:25;;;;;;;48.50;27.70;;;;;;;11.70;89.70;92538.69;5057430;28;20041;-74
2022/06/01 00:17:52;;;;;;;54.65;29.58;;;;;;;11.67;89.65;92540.84;5049230;28;20032;-73
2022/06/01 00:20:19;;;;;;;48.45;27.30;;;;;;;11.65;89.29;92542.19;5070128;28;20464;-74
2022/06/01 00:22:45;;;;;;;49.40;26.45;;;;;;;11.64;89.09;92536.19;5063584;28;20048;-74
2022/06/01 00:25:13;;;;;;;47.38;27.27;;;;;;;11.63;89.32;92531.22;5057315;28;20025;-74
2022/06/01 00:27:39;;;;;;;48.17;25.95;;;;;;;11.61;89.30;92535.97;5069937;28;20505;-74
2022/06/01 00:30:08;;;;;;;46.65;25.23;;;;;;;11.60;89.06;92537.81;5061680;28;20032;-74
2022/06/01 00:32:34;;;;;;;45.95;25.02;;;;;;;11.60;88.79;92542.28;5049189;28;20475;-74
2022/06/01 00:35:01;;;;;;;44.30;24.80;;;;;;;11.62;88.34;92537.53;5052650;28;20094;-75
2022/06/01 00:37:27;;;;;;;42.15;23.90;;;;;;;11.59;88.03;92538.88;5068628;28;20037;-75
2022/06/01 00:39:53;;;;;;;42.38;23.88;;;;;;;11.60;87.99;92544.91;5069852;28;20367;-74
2022/06/01 00:42:26;;;;;;;43.22;22.85;;;;;;;11.58;87.81;92544.44;5048364;28;20167;-74
2022/06/01 00:44:53;;;;;;;42.42;22.65;;;;;;;11.58;87.71;92533.94;5050484;28;20035;-74
2022/06/01 00:47:24;;;;;;;43.10;22.35;;;;;;;11.57;87.42;92541.03;5050739;28;20024;-74
2022/06/01 00:50:00;;;;;;;43.72;25.23;;;;;;;11.58;86.98;92542.56;5060734;28;20044;-74
2022/06/01 00:52:37;;;;;;;40.63;24.83;;;;;;;11.59;86.82;92532.88;5069549;28;20036;-74
2022/06/01 00:55:24;;;;;;;35.53;21.42;;;;;;;11.59;87.17;92532.88;5064836;28;20041;-74
2022/06/01 00:57:54;;;;;;;39.72;22.08;;;;;;;11.56;86.98;92539.47;5070498;28;20470;-74
2022/06/01 01:00:27;;;;;;;37.10;21.30;;;;;;;11.55;86.99;92534.50;5056797;28;20032;-74
2022/06/01 01:02:55;;;;;;;44.35;24.20;;;;;;;11.53;86.68;92528.78;5049524;28;20151;-74
2022/06/01 01:05:23;;;;;;;42.50;24.25;;;;;;;11.52;86.80;92532.47;5056588;28;20029;-74
2022/06/01 01:07:51;;;;;;;39.08;23.10;;;;;;;11.48;87.03;92531.50;5049461;28;20013;-74
2022/06/01 01:10:17;;;;;;;39.47;22.05;;;;;;;11.48;87.34;92531.50;5049419;28;20151;-74
2022/06/01 01:12:56;;;;;;;39.25;21.08;;;;;;;11.45;87.84;92528.38;5053351;28;20140;-75
2022/06/01 01:15:24;;;;;;;39.95;22.35;;;;;;;11.43;87.59;92538.38;5048199;28;20041;-74
2022/06/01 01:17:52;;;;;;;41.17;23.20;;;;;;;11.40;87.64;92530.34;5050588;28;20035;-75
2022/06/01 01:20:18;;;;;;;41.72;23.35;;;;;;;11.36;87.66;92524.09;5048815;28;20037;-75
2022/06/01 01:22:50;;;;;;;34.67;20.75;;;;;;;11.35;87.72;92527.78;5049363;28;20037;-74
2022/06/01 01:25:26;;;;;;;36.83;21.50;;;;;;;11.32;87.90;92528.38;5061057;28;20041;-74
2022/06/01 01:27:56;;;;;;;35.85;20.02;;;;;;;11.29;87.63;92529.72;5060225;28;20063;-75
2022/06/01 01:30:39;;;;;;;35.45;20.17;;;;;;;11.30;87.68;92527.88;5050965;28;20021;-74
2022/06/01 01:33:17;;;;;;;35.55;20.30;;;;;;;11.29;88.04;92521.88;5069326;28;20064;-74
2022/06/01 01:35:47;;;;;;;32.95;19.33;;;;;;;11.29;87.77;92529.72;5053486;28;20379;-75
2022/06/01 01:38:22;;;;;;;40.78;20.00;;;;;;;11.27;87.74;92523.22;5049714;28;20120;-74
2022/06/01 01:41:21;;;;;;;38.00;21.17;;;;;;;11.21;88.13;92530.38;5050115;28;20044;-74
2022/06/01 01:44:05;;;;;;;35.08;19.92;;;;;;;11.16;88.21;92530.47;5032417;28;20123;-74
2022/06/01 01:46:31;;;;;;;31.42;19.02;;;;;;;11.14;88.25;92530.75;5061030;28;20536;-74
2022/06/01 01:48:58;;;;;;;34.15;18.08;;;;;;;11.12;88.47;92530.25;5053622;28;20033;-74
2022/06/01 01:51:26;;;;;;;31.17;17.55;;;;;;;11.10;88.62;92532.41;5056209;28;20321;-75
2022/06/01 01:53:54;;;;;;;36.15;19.15;;;;;;;11.10;88.16;92521.13;5068602;28;20440;-75
2022/06/01 01:57:04;;;;;;;29.60;18.08;;;;;;;11.10;88.17;92526.38;5066183;28;20037;-75
2022/06/01 01:59:51;;;;;;;34.90;20.25;;;;;;;11.09;87.96;92524.84;5057020;28;20276;-74
2022/06/01 02:02:24;;;;;;;41.60;20.95;;;;;;;11.08;87.64;92521.44;5065120;28;20031;-74
2022/06/01 02:08:17;;;;;;;37.00;18.95;;;;;;;11.01;89.00;92529.66;5070585;28;20090;-74
2022/06/01 02:13:27;;;;;;;39.95;20.15;;;;;;;10.95;89.21;92515.09;5067936;28;20052;-75
2022/06/01 02:15:55;;;;;;;34.08;19.70;;;;;;;10.97;88.86;92528.69;5072749;28;20487;-74
2022/06/01 02:18:28;;;;;;;38.83;20.98;;;;;;;10.92;88.69;92520.91;5067760;28;20039;-74
2022/06/01 02:21:07;;;;;;;37.47;20.42;;;;;;;10.92;88.76;92526.16;5062560;28;20025;-74
2022/06/01 02:23:33;;;;;;;37.35;22.05;;;;;;;10.88;88.77;92517.31;5053512;28;20055;-75
2022/06/01 02:26:00;;;;;;;36.70;22.48;;;;;;;10.87;89.66;92520.22;5037074;28;20390;-74
2022/06/01 02:28:29;;;;;;;40.90;23.23;;;;;;;10.85;89.36;92507.41;5053564;28;20037;-74
2022/06/01 02:30:56;;;;;;;46.22;25.02;;;;;;;10.83;89.29;92514.78;5053892;28;20037;-74
2022/06/01 02:33:26;;;;;;;42.30;25.20;;;;;;;10.81;89.37;92519.53;5058034;28;20036;-74
2022/06/01 02:35:54;;;;;;;42.45;24.70;;;;;;;10.80;89.95;92520.56;5065364;28;20132;-74
2022/06/01 02:38:25;;;;;;;45.72;25.13;;;;;;;10.79;90.15;92517.19;5054251;28;20021;-74
2022/06/01 02:40:52;;;;;;;46.55;25.55;;;;;;;10.79;89.92;92517.19;5056964;28;20417;-74
2022/06/01 02:43:18;;;;;;;44.17;23.45;;;;;;;10.76;90.03;92512.53;5062849;28;20043;-74
2022/06/01 02:45:43;;;;;;;47.33;24.40;;;;;;;10.76;89.65;92522.19;5071386;28;20040;-74
2022/06/01 02:48:09;;;;;;;45.13;24.17;;;;;;;10.75;89.92;92523.28;5065304;28;20083;-74
2022/06/01 02:50:37;;;;;;;45.20;25.55;;;;;;;10.73;90.19;92518.31;5054756;28;20111;-74
2022/06/01 02:53:04;;;;;;;47.08;25.65;;;;;;;10.74;90.29;92511.22;5055088;28;20417;-74
2022/06/01 02:55:32;;;;;;;49.28;25.23;;;;;;;10.74;90.07;92508.63;5053120;28;20358;-74
2022/06/01 02:57:58;;;;;;;46.75;25.38;;;;;;;10.75;90.02;92504.94;5050454;28;20029;-74
2022/06/01 03:00:34;;;;;;;46.30;25.42;;;;;;;10.73;90.33;92507.84;5069653;28;20103;-74
2022/06/01 03:03:01;;;;;;;43.83;24.58;;;;;;;10.76;90.68;92506.50;5062824;28;20044;-74
2022/06/01 03:05:30;;;;;;;44.67;25.23;;;;;;;10.76;91.08;92507.28;5050167;28;20138;-74
2022/06/01 03:07:56;;;;;;;50.75;25.55;;;;;;;10.75;91.37;92510.19;5066929;28;20050;-74
2022/06/01 03:10:22;;;;;;;43.63;24.25;;;;;;;10.72;90.90;92508.94;5057546;28;20036;-74
2022/06/01 03:12:49;;;;;;;51.08;25.80;;;;;;;10.72;91.21;92513.38;5061600;28;20037;-74
2022/06/01 03:15:16;;;;;;;42.88;24.70;;;;;;;10.69;91.75;92511.31;5051622;28;20115;-74
2022/06/01 03:17:43;;;;;;;42.13;23.23;;;;;;;10.69;91.28;92516.56;5058694;28;20626;-74
2022/06/01 03:20:11;;;;;;;40.95;22.70;;;;;;;10.68;91.02;92507.16;5066717;28;20470;-74
2022/06/01 03:22:39;;;;;;;37.65;20.90;;;;;;;10.67;90.56;92506.38;5050801;28;20033;-74
2022/06/01 03:25:11;;;;;;;39.97;21.95;;;;;;;10.70;90.10;92507.66;5055583;28;20475;-75
2022/06/01 03:27:38;;;;;;;44.85;22.67;;;;;;;10.72;90.04;92510.78;5072020;28;20060;-74
2022/06/01 03:30:06;;;;;;;43.60;23.60;;;;;;;10.72;89.95;92513.38;5066925;28;20521;-75
2022/06/01 03:32:32;;;;;;;45.22;23.05;;;;;;;10.73;90.08;92509.69;5050238;28;20044;-74
2022/06/01 03:34:58;;;;;;;41.78;22.35;;;;;;;10.72;90.22;92511.53;5058724;28;20040;-74
2022/06/01 03:37:23;;;;;;;40.08;21.95;;;;;;;10.73;90.19;92510.47;5052175;28;20060;-74
2022/06/01 03:39:49;;;;;;;33.53;20.50;;;;;;;10.74;89.97;92508.63;5062629;28;20041;-74
2022/06/01 03:42:15;;;;;;;35.70;19.45;;;;;;;10.75;89.72;92515.44;5043114;28;20032;-74
2022/06/01 03:47:25;;;;;;;36.75;19.08;;;;;;;10.73;89.37;92509.69;5050843;28;20402;-74
2022/06/01 03:49:50;;;;;;;33.72;19.75;;;;;;;10.80;89.41;92512.72;5052210;28;20472;-74
2022/06/01 03:52:16;;;;;;;34.15;19.00;;;;;;;10.81;89.25;92519.53;5065404;28;20102;-74
2022/06/01 03:54:42;;;;;;;36.90;19.20;;;;;;;10.83;88.84;92512.94;5065297;28;20537;-75
2022/06/01 03:57:07;;;;;;;39.85;19.83;;;;;;;10.84;89.85;92516.31;5050297;28;20048;-74
2022/06/01 03:59:34;;;;;;;33.95;19.13;;;;;;;10.86;89.49;92516.06;5052804;28;20041;-75
2022/06/01 04:02:01;;;;;;;33.05;19.65;;;;;;;10.86;89.41;92522.06;5052211;28;20116;-74
2022/06/01 04:04:27;;;;;;;34.88;20.02;;;;;;;10.86;89.50;92527.28;5051571;28;20036;-74
2022/06/01 04:06:52;;;;;;;36.58;20.60;;;;;;;10.88;89.33;92534.88;5053349;28;20663;-74
2022/06/01 04:09:18;;;;;;;35.97;19.88;;;;;;;10.89;89.22;92518.84;5050293;28;20059;-74
2022/06/01 04:11:43;;;;;;;34.45;19.05;;;;;;;10.91;89.24;92531.66;5059231;28;20036;-73
2022/06/01 04:14:09;;;;;;;41.22;20.10;;;;;;;10.93;89.36;92534.78;5049395;28;20755;-73
2022/06/01 04:16:35;;;;;;;38.08;20.90;;;;;;;10.95;89.46;92536.06;5047768;28;20044;-75
2022/06/01 04:19:00;;;;;;;39.58;20.70;;;;;;;11.01;89.50;92531.50;5033578;28;20395;-75
2022/06/01 04:21:30;;;;;;;40.15;20.95;;;;;;;11.06;89.68;92530.66;5051104;28;20406;-75
2022/06/01 04:24:01;;;;;;;38.92;20.50;;;;;;;11.09;89.08;92545.78;5040171;28;20040;-75
2022/06/01 04:26:27;;;;;;;36.83;20.30;;;;;;;11.13;89.06;92544.16;5053572;28;20031;-75
2022/06/01 04:28:53;;;;;;;33.90;20.48;;;;;;;11.17;88.91;92553.00;5053842;28;20395;-75
2022/06/01 04:31:19;;;;;;;38.83;20.58;;;;;;;11.23;88.73;92557.06;5050409;28;20402;-75
2022/06/01 04:33:44;;;;;;;34.95;19.90;;;;;;;11.32;88.69;92554.56;5054076;28;20029;-75
2022/06/01 04:36:10;;;;;;;33.28;19.63;;;;;;;11.33;88.97;92556.91;5042322;28;20037;-75
2022/06/01 04:38:35;;;;;;;41.38;19.77;;;;;;;11.37;88.48;92549.22;5053623;28;20037;-75
2022/06/01 04:41:01;;;;;;;33.50;19.77;;;;;;;11.41;88.44;92552.84;5051320;28;20034;-75
2022/06/01 04:43:27;;;;;;;31.80;19.60;;;;;;;11.49;88.31;92559.28;5053267;28;20047;-75
2022/06/01 04:45:54;;;;;;;35.22;20.08;;;;;;;11.55;88.14;92547.59;5053323;28;20517;-75
2022/06/01 04:48:20;;;;;;;33.95;19.95;;;;;;;11.60;87.81;92550.94;5047604;28;20506;-75
2022/06/01 04:50:46;;;;;;;31.30;19.15;;;;;;;11.68;88.03;92552.09;5053498;28;20131;-75
2022/06/01 04:53:13;;;;;;;37.00;20.60;;;;;;;11.76;87.80;92554.06;5048275;28;20033;-75
2022/06/01 04:55:43;;;;;;;35.28;19.70;;;;;;;11.87;87.72;92552.00;5056745;28;20079;-75
2022/06/01 04:58:11;;;;;;;35.78;19.67;;;;;;;11.95;87.40;92558.44;5054922;28;20028;-76
2022/06/01 05:00:38;;;;;;;38.72;19.45;;;;;;;12.05;87.39;92560.88;5061882;28;20552;-76
2022/06/01 05:03:04;;;;;;;34.25;19.70;;;;;;;12.17;87.23;92565.63;5061480;28;20464;-76
2022/06/01 05:05:30;;;;;;;37.88;20.45;;;;;;;12.25;87.11;92565.72;5055236;28;20471;-76
2022/06/01 05:07:56;;;;;;;33.50;19.25;;;;;;;12.35;86.77;92559.47;5053370;28;20029;-76
2022/06/01 05:10:22;;;;;;;33.25;18.67;;;;;;;12.43;86.75;92560.63;5064520;28;20029;-75
2022/06/01 05:12:49;;;;;;;37.53;19.67;;;;;;;12.53;86.46;92563.03;5060951;28;20051;-75
2022/06/01 05:15:16;;;;;;;34.53;19.83;;;;;;;12.64;86.00;92569.63;5070904;28;20383;-75
2022/06/01 05:17:41;;;;;;;33.63;18.80;;;;;;;12.75;85.92;92572.03;5066494;28;20051;-76
2022/06/01 05:20:09;;;;;;;34.63;18.70;;;;;;;12.85;85.22;92571.78;5068653;28;20088;-75
2022/06/01 05:22:35;;;;;;;33.15;19.60;;;;;;;12.97;84.59;92574.69;5063444;28;20024;-75
2022/06/01 05:25:02;;;;;;;35.50;19.35;;;;;;;13.09;84.35;92579.41;5058791;28;20028;-75
2022/06/01 05:27:28;;;;;;;37.78;19.05;;;;;;;13.27;86.41;92577.66;5053095;28;20029;-75
2022/06/01 05:29:54;;;;;;;31.13;18.17;;;;;;;13.37;87.24;92579.28;5051689;28;20439;-76
2022/06/01 05:32:20;;;;;;;32.10;18.27;;;;;;;13.49;87.75;92575.03;5039701;28;20037;-75
2022/06/01 05:34:46;;;;;;;37.25;18.92;;;;;;;13.60;87.92;92580.03;5031897;28;20183;-75
2022/06/01 05:37:11;;;;;;;31.42;17.92;;;;;;;13.73;87.41;92574.69;5059353;28;20048;-76
2022/06/01 05:39:37;;;;;;;32.00;18.60;;;;;;;13.88;86.70;92585.88;5058210;28;20542;-76
2022/06/01 05:42:03;;;;;;;33.40;18.08;;;;;;;13.99;85.61;92583.78;5050878;28;20033;-76
2022/06/01 05:44:28;;;;;;;30.77;18.98;;;;;;;14.18;85.57;92584.28;5054366;28;20401;-76
2022/06/01 05:46:59;;;;;;;34.03;18.67;;;;;;;14.69;83.77;92582.88;5049499;28;20040;-76
2022/06/01 05:49:26;;;;;;;32.50;18.30;;;;;;;15.48;79.98;92577.56;5054802;28;20033;-76
2022/06/01 05:51:52;;;;;;;30.42;17.05;;;;;;;16.00;79.25;92578.19;5038971;28;20033;-77
2022/06/01 05:54:19;;;;;;;39.15;18.60;;;;;;;16.56;77.44;92579.94;5053737;28;20049;-76
2022/06/01 05:56:45;;;;;;;28.77;16.48;;;;;;;17.13;76.12;92589.22;5054756;28;20029;-76
2022/06/01 05:59:11;;;;;;;28.30;17.17;;;;;;;17.73;72.14;92587.88;5049843;28;20108;-77
2022/06/01 06:01:37;;;;;;;30.40;17.15;;;;;;;17.96;71.15;92585.63;5025234;28;20487;-76
2022/06/01 06:04:03;;;;;;;37.45;18.60;;;;;;;18.08;69.29;92590.16;5056243;28;20076;-76
2022/06/01 06:06:29;;;;;;;38.25;18.13;;;;;;;18.19;70.10;92591.28;5047355;28;20028;-76
2022/06/01 06:09:02;;;;;;;32.35;19.40;;;;;;;18.42;68.41;92588.22;5048541;28;20045;-76
2022/06/01 06:11:34;;;;;;;50.15;19.60;;;;;;;19.10;66.41;92593.66;5045594;28;20028;-76
2022/06/01 06:14:00;;;;;;;32.28;17.35;;;;;;;19.28;66.40;92598.69;5069874;28;20033;-76
2022/06/01 06:16:29;;;;;;;32.03;17.08;;;;;;;19.70;63.41;92599.09;5069406;28;20483;-76
2022/06/01 06:18:56;;;;;;;26.88;15.77;;;;;;;19.67;64.17;92607.69;5070105;28;20086;-76
2022/06/01 06:21:27;;;;;;;35.25;16.67;;;;;;;19.73;65.50;92603.72;5069096;28;20608;-76
2022/06/01 06:23:54;;;;;;;47.45;18.38;;;;;;;19.72;63.28;92604.06;5069988;28;20127;-76
2022/06/01 06:26:20;;;;;;;29.77;16.67;;;;;;;19.81;63.46;92599.34;5070423;28;20550;-76
2022/06/01 06:28:47;;;;;;;31.27;16.95;;;;;;;19.97;62.84;92602.03;5070187;28;20064;-76
2022/06/01 06:31:12;;;;;;;30.48;16.63;;;;;;;20.13;63.57;92599.41;5069937;28;20146;-76
2022/06/01 06:33:40;;;;;;;26.73;15.88;;;;;;;20.20;63.25;92606.75;5071814;28;20082;-76
2022/06/01 06:36:07;;;;;;;25.30;15.75;;;;;;;20.40;62.84;92605.75;5072193;28;20089;-76
2022/06/01 06:38:36;;;;;;;31.45;16.10;;;;;;;20.06;63.60;92604.53;5073231;28;20028;-76
2022/06/01 06:41:04;;;;;;;32.47;17.00;;;;;;;19.31;66.27;92609.38;5073333;28;20029;-76
2022/06/01 06:43:33;;;;;;;33.45;17.60;;;;;;;18.89;67.98;92608.94;5072939;28;20040;-75
2022/06/01 06:46:03;;;;;;;28.92;17.42;;;;;;;18.49;68.84;92605.09;5073263;28;20090;-76
2022/06/01 06:48:29;;;;;;;25.98;16.17;;;;;;;18.41;69.15;92615.81;5073079;28;20155;-76
2022/06/01 06:50:55;;;;;;;31.58;17.17;;;;;;;18.26;70.65;92614.56;5073252;28;20487;-76
2022/06/01 06:53:21;;;;;;;27.48;16.50;;;;;;;18.08;72.32;92614.78;5073040;28;20150;-76
2022/06/01 06:55:47;;;;;;;26.83;16.33;;;;;;;17.80;73.19;92614.59;5054833;28;20053;-76
2022/06/01 06:58:13;;;;;;;31.52;19.05;;;;;;;17.81;72.34;92618.81;5073013;28;20029;-75
2022/06/01 07:00:39;;;;;;;29.38;17.33;;;;;;;18.02;72.42;92616.09;5071691;28;20035;-76
2022/06/01 07:03:06;;;;;;;35.88;17.27;;;;;;;18.39;70.65;92625.97;5072946;28;20506;-76
2022/06/01 07:08:16;;;;;;;34.88;19.40;;;;;;;18.67;67.56;92626.84;5072896;28;20097;-76
2022/06/01 07:10:42;;;;;;;36.13;18.90;;;;;;;18.77;66.43;92636.25;5071247;28;20032;-75
2022/06/01 07:13:08;;;;;;;27.17;15.07;;;;;;;18.58;69.20;92641.34;5071625;28;20118;-76
2022/06/01 07:15:35;;;;;;;37.80;20.33;;;;;;;18.17;67.25;92637.75;5072575;28;20060;-76
2022/06/01 07:18:03;;;;;;;38.92;19.48;;;;;;;18.13;67.86;92634.22;5072619;28;20033;-76
2022/06/01 07:20:29;;;;;;;42.78;20.00;;;;;;;18.28;66.50;92634.38;5071325;28;20036;-76
2022/06/01 07:22:56;;;;;;;36.80;20.10;;;;;;;18.46;65.11;92640.22;5072277;28;20036;-76
2022/06/01 07:25:23;;;;;;;57.70;26.77;;;;;;;18.40;58.73;92638.91;5054580;28;20028;-76
2022/06/01 07:27:49;;;;;;;48.58;22.77;;;;;;;18.30;62.52;92648.03;5072625;28;20020;-76
2022/06/01 07:30:15;;;;;;;43.15;22.92;;;;;;;18.72;59.51;92647.06;5071111;28;20036;-76
2022/06/01 07:32:44;;;;;;;45.88;23.23;;;;;;;18.79;59.09;92652.59;5071027;28;20040;-76
2022/06/01 07:35:10;;;;;;;43.67;23.92;;;;;;;18.40;60.83;92646.06;5069984;28;20017;-76
2022/06/01 07:43:07;;;;;;;47.28;26.10;;;;;;;18.29;59.65;92658.97;5051549;28;20041;-76
2022/06/01 07:45:35;;;;;;;43.53;21.48;;;;;;;18.15;61.12;92661.94;5050993;28;20041;-75
2022/06/01 07:48:03;;;;;;;47.58;24.50;;;;;;;18.20;60.59;92663.59;5052455;28;20036;-76
2022/06/01 07:50:29;;;;;;;49.30;24.23;;;;;;;18.23;61.72;92661.06;5033975;28;20119;-75
2022/06/01 07:52:55;;;;;;;52.70;25.92;;;;;;;18.16;61.02;92652.88;5034477;28;20123;-75
2022/06/01 07:55:20;;;;;;;48.97;26.50;;;;;;;18.69;58.47;92655.69;5051959;28;20049;-76
2022/06/01 07:57:46;;;;;;;44.80;25.00;;;;;;;18.64;59.53;92653.25;5051679;28;20241;-76
2022/06/01 08:00:12;;;;;;;43.95;25.02;;;;;;;18.71;60.27;92654.25;5034039;28;20075;-75
2022/06/01 08:02:38;;;;;;;49.30;25.35;;;;;;;18.76;59.79;92658.56;5057442;28;20032;-76
2022/06/01 08:05:05;;;;;;;36.08;21.45;;;;;;;19.05;61.63;92648.81;5070432;28;20443;-76
2022/06/01 08:07:33;;;;;;;43.80;25.65;;;;;;;19.16;58.75;92649.91;5070237;28;20505;-76
2022/06/01 08:09:59;;;;;;;43.05;23.23;;;;;;;19.12;60.54;92649.81;5071395;28;20020;-76
2022/06/01 08:15:10;;;;;;;44.63;24.67;;;;;;;19.22;58.76;92656.53;5056106;28;20545;-75
2022/06/01 08:17:36;;;;;;;47.75;27.02;;;;;;;18.93;59.94;92646.97;5071194;28;20060;-75
2022/06/01 08:20:02;;;;;;;39.17;23.30;;;;;;;19.00;61.87;92655.13;5053748;28;20072;-75
2022/06/01 08:22:28;;;;;;;27.65;16.48;;;;;;;18.93;66.31;92652.25;5071503;28;20047;-75
2022/06/01 08:24:53;;;;;;;22.10;13.30;;;;;;;18.86;67.76;92650.16;5071173;28;20028;-76
2022/06/01 08:27:19;;;;;;;23.38;15.45;;;;;;;18.42;70.35;92652.59;5071268;28;20040;-75
2022/06/01 08:29:45;;;;;;;39.33;23.80;;;;;;;18.51;64.64;92652.50;5053144;28;20098;-76
2022/06/01 08:32:11;;;;;;;36.17;19.50;;;;;;;18.75;65.54;92651.69;5053682;28;20040;-75
2022/06/01 08:34:36;;;;;;;36.75;23.55;;;;;;;18.77;64.25;92648.72;5070180;28;20537;-75
2022/06/01 08:37:03;;;;;;;41.20;24.65;;;;;;;19.07;61.81;92654.56;5072607;28;20036;-75
2022/06/01 08:39:28;;;;;;;26.45;16.95;;;;;;;19.24;66.24;92661.50;5071355;28;20593;-75
2022/06/01 08:41:56;;;;;;;28.90;16.40;;;;;;;19.25;66.15;92663.03;5054173;28;20135;-76
2022/06/01 08:44:42;;;;;;;42.22;23.10;;;;;;;18.81;65.10;92663.66;5070154;28;20139;-76
2022/06/01 08:47:31;;;;;;;49.42;29.55;;;;;;;18.65;60.40;92665.41;5071018;28;20501;-75
2022/06/01 08:50:00;;;;;;;37.65;19.10;;;;;;;18.84;65.07;92681.53;5070875;28;20037;-76
2022/06/01 08:52:31;;;;;;;47.65;23.52;;;;;;;18.82;62.84;92681.09;5052966;28;20020;-75
2022/06/01 08:54:56;;;;;;;41.40;23.67;;;;;;;18.99;63.27;92687.31;5051794;28;20072;-75
2022/06/01 08:57:28;;;;;;;30.00;18.38;;;;;;;19.10;65.90;92688.41;5070840;28;20589;-75
2022/06/01 09:00:12;;;;;;;35.00;22.37;;;;;;;19.28;61.46;92689.69;5069661;28;20378;-76
2022/06/01 09:03:22;;;;;;;52.75;26.90;;;;;;;19.38;60.19;92700.94;5069710;28;20645;-76
2022/06/01 09:05:53;;;;;;;31.75;18.52;;;;;;;19.56;63.25;92700.34;5069347;28;20040;-76
2022/06/01 09:08:22;;;;;;;39.10;21.00;;;;;;;20.08;61.21;92688.09;5070748;28;20478;-76
2022/06/01 09:11:07;;;;;;;45.85;25.00;;;;;;;20.08;58.57;92692.66;5069232;28;20081;-76
2022/06/01 09:13:43;;;;;;;44.25;20.08;;;;;;;19.99;60.84;92689.38;5069185;28;20518;-76
2022/06/01 09:16:23;;;;;;;37.40;20.60;;;;;;;20.26;58.22;92687.78;5070527;28;20115;-76
2022/06/01 09:18:52;;;;;;;27.83;17.77;;;;;;;20.12;60.39;92683.66;5070517;28;20060;-76
2022/06/01 09:24:18;;;;;;;39.95;23.20;;;;;;;20.04;59.68;92694.44;5070531;28;20067;-75
2022/06/01 09:26:58;;;;;;;31.73;18.75;;;;;;;20.30;61.26;92701.94;5069144;28;20119;-76
2022/06/01 09:29:27;;;;;;;38.53;23.40;;;;;;;19.99;57.57;92692.78;5070775;28;20036;-76
2022/06/01 09:32:32;;;;;;;35.72;21.95;;;;;;;19.82;59.07;92695.78;5070390;28;20027;-76
2022/06/01 09:35:08;;;;;;;38.55;22.13;;;;;;;20.25;58.47;92692.34;5067994;28;20409;-76
2022/06/01 09:37:46;;;;;;;32.45;20.42;;;;;;;20.76;57.33;92699.66;5067448;28;20039;-76
2022/06/01 09:40:30;;;;;;;34.22;18.85;;;;;;;21.28;57.53;92693.28;5069647;28;20032;-75
2022/06/01 09:43:00;;;;;;;35.33;21.23;;;;;;;21.42;51.62;92692.81;5070217;28;20044;-76
2022/06/01 09:45:27;;;;;;;34.40;20.80;;;;;;;21.16;51.61;92688.81;5070245;28;20055;-76
2022/06/01 09:48:10;;;;;;;30.92;18.30;;;;;;;21.05;57.07;92695.78;5053334;28;20044;-75
2022/06/01 09:50:37;;;;;;;;;;;;;;;21.08;59.37;92692.44;5071980;28;20570;-76
2022/06/01 09:53:19;;;;;;;30.02;19.92;;;;;;;20.94;55.56;92690.25;5070034;28;19985;-76
2022/06/01 09:55:54;;;;;;;38.80;19.23;;;;;;;21.22;55.18;92689.31;5068669;28;20147;-76
2022/06/01 10:06:50;;;;;;;33.75;19.70;;;;;;;20.50;56.35;92681.56;5073363;28;20036;-75
2022/06/01 10:09:21;;;;;;;33.10;19.02;;;;;;;20.17;59.32;92682.63;5073602;28;20065;-75
2022/06/01 10:11:51;;;;;;;28.63;19.50;;;;;;;20.26;60.02;92682.47;5072560;28;20398;-75
2022/06/01 10:14:32;;;;;;;29.33;19.10;;;;;;;20.43;59.20;92676.84;5073112;28;20037;-75
2022/06/01 10:17:19;;;;;;;28.52;18.40;;;;;;;20.37;57.92;92675.53;5072905;28;20554;-75
2022/06/01 10:19:54;;;;;;;30.85;18.70;;;;;;;20.62;56.70;92670.09;5074527;28;20139;-75
2022/06/01 10:23:01;;;;;;;29.45;18.90;;;;;;;20.61;57.12;92671.22;5073300;28;20040;-75
2022/06/01 10:25:49;;;;;;;21.23;14.20;;;;;;;20.18;60.49;92673.56;5070208;28;20396;-75
2022/06/01 10:28:26;;;;;;;26.42;16.35;;;;;;;20.22;56.59;92676.28;5072403;28;20028;-75
2022/06/01 10:30:56;;;;;;;26.65;16.25;;;;;;;20.78;57.43;92666.31;5074125;28;20037;-75
2022/06/01 10:33:30;;;;;;;22.30;13.68;;;;;;;21.11;55.77;92672.34;5073263;28;20395;-75
2022/06/01 10:36:02;;;;;;;21.15;13.55;;;;;;;21.12;54.11;92664.03;5072082;28;20272;-75
2022/06/01 10:38:38;;;;;;;22.05;13.43;;;;;;;21.33;51.33;92663.69;5074724;28;20047;-75
2022/06/01 10:41:16;;;;;;;24.23;14.85;;;;;;;21.35;51.56;92656.13;5073978;28;20039;-75
2022/06/01 10:43:47;;;;;;;22.83;12.43;;;;;;;21.02;53.63;92661.13;5072004;28;20044;-75
2022/06/01 10:46:53;;;;;;;31.10;14.60;;;;;;;20.94;50.76;92652.19;5073349;28;20059;-75
2022/06/01 10:49:31;;;;;;;17.15;10.88;;;;;;;20.94;52.93;92657.50;5072511;28;20079;-75
2022/06/01 10:52:23;;;;;;;19.77;12.85;;;;;;;21.00;51.75;92666.78;5073316;28;20036;-75
2022/06/01 10:55:27;;;;;;;24.33;15.55;;;;;;;20.90;51.65;92662.00;5072850;28;20131;-75
2022/06/01 10:57:57;;;;;;;22.20;12.98;;;;;;;20.98;51.98;92669.81;5061416;28;20052;-75
2022/06/01 11:00:29;;;;;;;25.23;12.23;;;;;;;21.06;50.40;92667.31;5071805;28;20040;-75
2022/06/01 11:03:13;;;;;;;;;;;;;;;20.85;50.22;92671.03;5074251;28;20371;-75
2022/06/01 11:05:57;;;;;;;28.80;17.98;;;;;;;20.44;51.93;92672.28;5071840;28;19912;-75
2022/06/01 11:08:29;;;;;;;25.75;15.00;;;;;;;21.02;50.63;92679.75;5073165;28;20028;-75
2022/06/01 11:11:01;;;;;;;27.95;15.07;;;;;;;20.90;51.62;92688.63;5071348;28;20033;-75
2022/06/01 11:14:05;;;;;;;23.80;14.50;;;;;;;21.09;52.13;92687.88;5073287;28;20036;-75
2022/06/01 11:16:52;;;;;;;23.58;10.93;;;;;;;20.79;50.75;92689.13;5072830;28;20039;-75
2022/06/01 11:19:28;;;;;;;30.85;17.52;;;;;;;20.79;50.75;92675.06;5073806;28;20047;-75
2022/06/01 11:22:03;;;;;;;19.83;14.38;;;;;;;21.01;52.67;92679.00;5076470;28;20107;-76
2022/06/01 11:25:02;;;;;;;18.27;11.70;;;;;;;20.62;53.69;92680.72;5071895;28;20038;-76
2022/06/01 11:28:11;;;;;;;21.55;12.68;;;;;;;21.02;52.24;92685.84;5061452;28;20114;-75
2022/06/01 11:31:01;;;;;;;17.80;12.80;;;;;;;21.54;52.24;92681.28;5072690;28;20029;-76
2022/06/01 11:33:43;;;;;;;21.05;11.00;;;;;;;21.81;52.26;92685.63;5054222;28;20040;-75
2022/06/01 11:36:23;;;;;;;21.70;14.82;;;;;;;21.91;48.89;92686.16;5054292;28;20375;-76
2022/06/01 11:39:09;;;;;;;25.10;14.68;;;;;;;21.76;48.88;92674.47;5069713;28;20479;-75
2022/06/01 11:41:38;;;;;;;17.95;12.55;;;;;;;22.24;50.11;92678.44;5054708;28;20059;-75
2022/06/01 11:44:18;;;;;;;21.73;13.05;;;;;;;22.84;51.21;92671.81;5072085;28;20103;-76
2022/06/01 11:46:55;;;;;;;18.17;12.50;;;;;;;22.68;48.22;92658.59;5072159;28;20036;-76
2022/06/01 11:49:42;;;;;;;20.38;12.00;;;;;;;21.94;50.93;92658.84;5070985;28;20036;-76
2022/06/01 11:52:26;;;;;;;18.48;9.68;;;;;;;22.14;48.94;92655.00;5072018;28;20433;-76
2022/06/01 11:55:10;;;;;;;23.48;15.05;;;;;;;21.63;50.38;92655.19;5070879;28;20415;-76
2022/06/01 11:57:44;;;;;;;19.05;12.48;;;;;;;21.61;51.10;92668.09;5071782;28;20239;-76
2022/06/01 12:00:34;;;;;;;24.35;14.80;;;;;;;21.11;52.47;92675.00;5071981;28;20040;-76
2022/06/01 12:03:24;;;;;;;25.98;16.60;;;;;;;20.98;52.79;92667.16;5071480;28;20071;-76
2022/06/01 12:06:04;;;;;;;25.52;16.80;;;;;;;20.98;53.49;92666.34;5071832;28;20037;-76